createdAt,value
2023-04-05T00:05:50.127Z,3.50
2023-04-05T00:11:52.069Z,3.38
2023-04-05T00:17:56.674Z,3.55
2023-04-05T00:23:59.369Z,3.22
2023-04-05T00:30:01.408Z,4.10
2023-04-05T00:36:17.408Z,3.92
2023-04-05T00:42:19.484Z,4.57
2023-04-05T00:48:21.520Z,3.90
2023-04-05T00:54:25.537Z,4.00
2023-04-05T01:00:27.831Z,4.30
2023-04-05T01:07:02.003Z,3.80
2023-04-05T01:13:04.168Z,3.95
2023-04-05T01:19:06.307Z,4.07
2023-04-05T01:25:41.539Z,3.83
2023-04-05T01:31:51.121Z,4.10
2023-04-05T01:38:02.995Z,3.63
2023-04-05T01:44:04.878Z,4.40
2023-04-05T01:50:07.567Z,4.22
2023-04-05T01:56:09.851Z,4.50
2023-04-05T02:02:12.232Z,5.07
2023-04-05T02:08:14.526Z,4.28
2023-04-05T02:14:16.353Z,4.07
2023-04-05T02:20:18.486Z,4.40
2023-04-05T02:26:21.346Z,4.32
2023-04-05T02:32:24.007Z,4.28
2023-04-05T02:38:26.017Z,3.92
2023-04-05T02:44:29.826Z,4.05
2023-04-05T02:50:31.857Z,4.80
2023-04-05T02:56:34.146Z,4.53
2023-04-05T03:02:40.505Z,4.47
2023-04-05T03:08:46.658Z,3.97
2023-04-05T03:14:51.510Z,4.40
2023-04-05T03:20:58.296Z,4.43
2023-04-05T03:43:03.272Z,4.78
2023-04-05T03:49:06.127Z,4.57
2023-04-05T03:55:09.442Z,5.45
2023-04-05T04:01:12.288Z,5.20
2023-04-05T04:07:14.783Z,4.80
2023-04-05T04:13:19.226Z,5.05
2023-04-05T04:19:26.436Z,4.72
2023-04-05T04:25:41.748Z,4.90
2023-04-05T04:38:34.836Z,5.00
2023-04-05T04:44:58.132Z,6.00
2023-04-05T04:51:18.539Z,5.03
2023-04-05T04:57:20.742Z,6.60
2023-04-05T05:03:22.494Z,5.72
2023-04-05T05:09:24.312Z,6.47
2023-04-05T05:15:30.002Z,5.90
2023-04-05T05:21:32.784Z,6.10
2023-04-05T05:27:37.184Z,6.80
2023-04-05T05:33:39.473Z,5.95
2023-04-05T05:39:41.594Z,5.72
2023-04-05T05:45:43.779Z,7.57
2023-04-05T05:51:47.602Z,7.50
2023-04-05T05:57:53.317Z,8.18
2023-04-05T06:03:56.446Z,7.75
2023-04-05T06:10:00.684Z,8.15
2023-04-05T06:16:16.618Z,7.80
2023-04-05T06:22:18.912Z,7.00
2023-04-05T06:28:21.312Z,7.30
2023-04-05T06:34:23.537Z,5.90
2023-04-05T06:40:26.027Z,5.82
2023-04-05T06:46:28.842Z,6.10
2023-04-05T06:52:31.519Z,5.70
2023-04-05T06:58:33.760Z,5.20
2023-04-05T07:04:37.174Z,5.60
2023-04-05T07:10:42.079Z,6.00
2023-04-05T07:16:44.657Z,5.28
2023-04-05T07:22:48.001Z,4.88
2023-04-05T07:28:50.569Z,4.85
2023-04-05T07:34:53.201Z,4.63
2023-04-05T07:40:55.965Z,4.40
2023-04-05T07:46:58.271Z,4.88
2023-04-05T07:53:00.829Z,4.97
2023-04-05T07:59:03.015Z,4.18
2023-04-05T08:05:06.603Z,4.32
2023-04-05T08:11:10.559Z,4.43
2023-04-05T08:17:14.959Z,4.88
2023-04-05T08:23:17.700Z,4.70
2023-04-05T08:29:20.381Z,4.32
2023-04-05T08:35:23.249Z,4.28
2023-04-05T08:41:32.349Z,4.28
2023-04-05T08:47:36.701Z,4.28
2023-04-05T08:53:39.758Z,4.70
2023-04-05T08:59:44.895Z,5.20
2023-04-05T09:05:51.984Z,4.32
2023-04-05T09:11:57.625Z,5.00
2023-04-05T09:18:00.434Z,4.05
2023-04-05T09:24:02.431Z,4.15
2023-04-05T09:30:22.784Z,5.20
2023-04-05T09:36:25.940Z,3.80
2023-04-05T09:42:34.945Z,4.00
2023-04-05T09:48:48.186Z,3.38
2023-04-05T09:54:56.800Z,2.85
2023-04-05T10:01:13.946Z,1.90
2023-04-05T10:07:20.518Z,1.92
2023-04-05T10:13:23.165Z,2.28
2023-04-05T10:19:49.834Z,2.03
2023-04-05T10:25:53.640Z,2.08
2023-04-05T10:32:25.044Z,2.05
2023-04-05T10:38:29.083Z,2.22
2023-04-05T10:44:33.383Z,2.53
2023-04-05T10:50:36.685Z,1.92
2023-04-05T10:56:40.151Z,2.30
2023-04-05T11:02:42.702Z,2.80
2023-04-05T11:08:46.558Z,2.00
2023-04-05T11:14:48.493Z,2.30
2023-04-05T11:21:06.099Z,2.47
2023-04-05T11:27:10.457Z,2.25
2023-04-05T11:33:44.861Z,2.03
2023-04-05T11:40:25.771Z,2.60
2023-04-05T11:46:33.717Z,2.10
2023-04-05T11:52:36.839Z,2.13
2023-04-05T11:58:40.263Z,2.50
2023-04-05T12:04:44.190Z,2.10
2023-04-05T12:10:57.664Z,2.42
2023-04-05T12:17:00.338Z,2.35
2023-04-05T12:23:04.797Z,2.25
2023-04-05T12:29:08.764Z,2.40
2023-04-05T12:35:17.813Z,2.17
2023-04-05T12:41:27.843Z,2.25
2023-04-05T12:47:29.708Z,2.40
2023-04-05T12:53:31.504Z,2.38
2023-04-05T12:59:33.342Z,2.95
2023-04-05T13:05:35.190Z,2.95
2023-04-05T13:11:37.014Z,2.88
2023-04-05T13:17:39.136Z,2.40
2023-04-05T13:23:41.692Z,2.55
2023-04-05T13:29:43.547Z,2.67
2023-04-05T13:35:46.140Z,3.10
2023-04-05T13:41:48.022Z,2.40
2023-04-05T13:47:49.879Z,2.90
2023-04-05T13:53:51.794Z,2.83
2023-04-05T13:59:53.665Z,2.50
2023-04-05T14:05:55.877Z,2.58
2023-04-05T14:11:58.734Z,3.08
2023-04-05T14:18:00.961Z,2.50
2023-04-05T14:24:03.383Z,2.85
2023-04-05T14:30:05.759Z,2.80
2023-04-05T14:36:07.689Z,2.35
2023-04-05T14:42:09.606Z,3.13
2023-04-05T14:48:11.494Z,2.25
2023-04-05T14:54:13.513Z,3.42
2023-04-05T15:00:15.833Z,2.50
2023-04-05T15:06:17.735Z,2.63
2023-04-05T15:12:19.738Z,2.42
2023-04-05T15:18:21.630Z,2.33
2023-04-05T15:24:23.514Z,2.80
2023-04-05T15:30:26.015Z,2.45
2023-04-05T15:36:28.318Z,2.72
2023-04-05T15:42:30.450Z,2.40
2023-04-05T15:48:32.259Z,2.80
2023-04-05T15:54:34.097Z,2.22
2023-04-05T16:00:35.934Z,2.10
2023-04-05T16:06:37.737Z,2.50
2023-04-05T16:12:39.615Z,2.60
2023-04-05T16:18:41.398Z,2.00
2023-04-05T16:24:44.202Z,2.10
2023-04-05T16:30:48.229Z,2.38
2023-04-05T16:36:50.496Z,2.55
2023-04-05T16:42:54.314Z,2.40
2023-04-05T16:48:56.124Z,2.10
2023-04-05T16:54:58.225Z,2.15
2023-04-05T17:01:00.411Z,2.30
2023-04-05T17:07:02.800Z,2.25
2023-04-05T17:13:04.668Z,2.38
2023-04-05T17:19:06.681Z,2.40
2023-04-05T17:25:08.997Z,2.67
2023-04-05T17:31:11.229Z,2.30
2023-04-05T17:37:13.078Z,2.65
2023-04-05T17:43:14.847Z,2.42
2023-04-05T17:49:16.670Z,2.53
2023-04-05T17:55:18.494Z,2.53
2023-04-05T18:01:20.666Z,2.17
2023-04-05T18:07:22.657Z,2.53
2023-04-05T18:13:25.493Z,2.10
2023-04-05T18:19:27.895Z,2.40
2023-04-05T18:25:29.892Z,2.30
2023-04-05T18:31:31.838Z,2.30
2023-04-05T18:37:33.741Z,2.53
2023-04-05T18:43:35.907Z,2.40
2023-04-05T18:49:37.824Z,2.45
2023-04-05T18:55:39.612Z,2.42
2023-04-05T19:01:41.422Z,3.13
2023-04-05T19:07:43.358Z,3.20
2023-04-05T19:13:46.283Z,3.15
2023-04-05T19:19:48.687Z,3.00
2023-04-05T19:25:50.843Z,3.00
2023-04-05T19:31:54.749Z,2.60
2023-04-05T19:37:58.067Z,3.30
2023-04-05T19:44:01.003Z,3.20
2023-04-05T19:50:09.583Z,3.20
2023-04-05T19:56:23.647Z,2.70
2023-04-05T20:02:36.619Z,2.42
2023-04-05T20:08:46.413Z,3.10
2023-04-05T20:14:49.191Z,5.13
2023-04-05T20:20:53.752Z,4.35
2023-04-05T20:26:58.530Z,5.85
2023-04-05T20:33:01.832Z,5.30
2023-04-05T20:39:06.475Z,4.10
2023-04-05T20:45:09.231Z,3.80
2023-04-05T20:51:14.239Z,3.75
2023-04-05T20:57:16.172Z,4.30
2023-04-05T21:03:18.010Z,4.57
2023-04-05T21:09:19.862Z,4.60
2023-04-05T21:15:21.992Z,4.80
2023-04-05T21:21:23.766Z,5.85
2023-04-05T21:27:27.302Z,4.60
2023-04-05T21:33:29.081Z,4.30
2023-04-05T21:39:31.046Z,4.47
2023-04-05T21:45:32.800Z,4.20
2023-04-05T21:51:34.547Z,5.10
2023-04-05T21:57:36.320Z,4.45
2023-04-05T22:03:38.244Z,4.53
2023-04-05T22:09:40.056Z,6.18
2023-04-05T22:15:41.883Z,6.10
2023-04-05T22:21:43.976Z,5.97
2023-04-05T22:27:45.791Z,5.68
2023-04-05T22:33:47.555Z,5.55
2023-04-05T22:39:49.336Z,6.43
2023-04-05T22:45:52.162Z,6.30
2023-04-05T22:51:53.953Z,6.75
2023-04-05T22:57:55.861Z,6.85
2023-04-05T23:03:57.683Z,6.97
2023-04-05T23:09:59.469Z,6.28
2023-04-05T23:16:01.645Z,5.78
2023-04-05T23:22:03.881Z,6.13
2023-04-05T23:28:05.929Z,6.75
2023-04-05T23:34:07.796Z,6.50
2023-04-05T23:40:10.238Z,6.82
2023-04-05T23:46:12.152Z,6.85
2023-04-05T23:52:14.214Z,7.45
2023-04-05T23:58:16.075Z,7.30
